Time;durP1;ratioP1;P1;durP2;ratioP2;P2;SDS_P1;SDS_P2;PMS_P1;PMS_P2;Temp;Humidity;BMP_temperature;BMP_pressure;BME280_temperature;BME280_humidity;BME280_pressure;Samples;Min_cycle;Max_cycle;Signal;HPM_P1;HPM_P2
2022/04/09 00:00:30;;;;;;;11.45;2.42;;;10.50;99.90;;;;;;4995186;28;20026;-79
2022/04/09 00:02:57;;;;;;;19.73;2.75;;;10.40;99.90;;;;;;4995916;28;20076;-81
2022/04/09 00:05:23;;;;;;;17.67;3.22;;;10.40;99.90;;;;;;4995474;28;20122;-81
2022/04/09 00:07:48;;;;;;;21.42;3.38;;;10.40;99.90;;;;;;4996493;28;20073;-81
2022/04/09 00:10:14;;;;;;;19.75;2.78;;;10.40;99.90;;;;;;4996546;28;20034;-81
2022/04/09 00:12:44;;;;;;;17.40;3.20;;;10.30;99.90;;;;;;4996689;28;20069;-81
2022/04/09 00:15:10;;;;;;;19.98;3.15;;;10.30;99.90;;;;;;4996162;28;20046;-81
2022/04/09 00:17:41;;;;;;;16.65;2.90;;;10.30;99.90;;;;;;4996826;28;20456;-81
2022/04/09 00:20:08;;;;;;;22.25;3.17;;;10.20;99.90;;;;;;4996172;28;20038;-81
2022/04/09 00:22:34;;;;;;;19.73;3.40;;;10.20;99.90;;;;;;4996339;28;20019;-80
2022/04/09 00:25:00;;;;;;;21.45;3.35;;;10.30;99.90;;;;;;5015282;28;20034;-81
2022/04/09 00:27:26;;;;;;;15.80;2.88;;;10.30;99.90;;;;;;4980089;28;20383;-79
2022/04/09 00:29:52;;;;;;;23.77;4.07;;;10.20;99.90;;;;;;4978397;28;20045;-79
2022/04/09 00:32:19;;;;;;;21.42;3.60;;;10.30;99.90;;;;;;4996145;28;20494;-79
2022/04/09 00:34:44;;;;;;;15.98;2.88;;;10.20;99.90;;;;;;4996276;28;20053;-79
2022/04/09 00:37:10;;;;;;;28.20;4.15;;;10.10;99.90;;;;;;4995889;28;20026;-79
2022/04/09 00:39:36;;;;;;;22.00;2.72;;;10.10;99.90;;;;;;4996009;28;20034;-80
2022/04/09 00:42:01;;;;;;;20.48;3.05;;;10.10;99.90;;;;;;4995920;28;20506;-78
2022/04/09 00:44:27;;;;;;;21.63;3.38;;;10.00;99.90;;;;;;5001421;28;20463;-80
2022/04/09 00:46:53;;;;;;;18.45;3.33;;;10.00;99.90;;;;;;5015578;28;20385;-80
2022/04/09 00:49:20;;;;;;;22.42;3.33;;;10.00;99.90;;;;;;5015477;28;20081;-80
2022/04/09 00:51:50;;;;;;;20.27;3.28;;;10.00;99.90;;;;;;5015561;28;20025;-80
2022/04/09 00:54:18;;;;;;;24.00;4.05;;;10.00;99.90;;;;;;5015337;28;20567;-80
2022/04/09 00:56:47;;;;;;;25.70;3.65;;;10.00;99.90;;;;;;5015232;28;20485;-80
2022/04/09 00:59:15;;;;;;;17.40;4.22;;;10.00;99.90;;;;;;5003059;28;20068;-79
2022/04/09 01:01:41;;;;;;;23.42;3.88;;;9.90;99.90;;;;;;4995572;28;20174;-80
2022/04/09 01:04:11;;;;;;;16.27;2.78;;;9.90;99.90;;;;;;4994188;28;20147;-80
2022/04/09 01:06:38;;;;;;;21.33;3.00;;;10.00;99.90;;;;;;4995779;28;20524;-80
2022/04/09 01:09:05;;;;;;;17.98;3.00;;;10.00;99.90;;;;;;4994660;28;20038;-81
2022/04/09 01:11:32;;;;;;;19.33;3.13;;;9.90;99.90;;;;;;4995750;28;20027;-80
2022/04/09 01:13:58;;;;;;;18.00;3.47;;;9.80;99.90;;;;;;4994498;28;20034;-80
2022/04/09 01:16:28;;;;;;;20.33;3.22;;;9.80;99.90;;;;;;4995436;28;20018;-81
2022/04/09 01:18:57;;;;;;;18.40;4.32;;;9.70;99.90;;;;;;4995321;28;20026;-80
2022/04/09 01:21:24;;;;;;;19.63;3.05;;;9.70;99.90;;;;;;4994517;28;20061;-80
2022/04/09 01:23:50;;;;;;;13.80;3.00;;;9.70;99.90;;;;;;4995339;28;20038;-81
2022/04/09 01:26:16;;;;;;;29.30;3.30;;;9.70;99.90;;;;;;4995040;28;20352;-81
2022/04/09 01:28:43;;;;;;;22.52;3.22;;;9.60;99.90;;;;;;4994334;28;20034;-80
2022/04/09 01:31:09;;;;;;;20.10;3.05;;;9.60;99.90;;;;;;4991441;28;20011;-80
2022/04/09 01:33:35;;;;;;;18.38;3.38;;;9.60;99.90;;;;;;4975814;28;20030;-80
2022/04/09 01:36:01;;;;;;;19.25;2.85;;;9.60;99.90;;;;;;4975664;28;20019;-80
2022/04/09 01:38:27;;;;;;;16.70;3.25;;;9.60;99.90;;;;;;4974030;28;20106;-80
2022/04/09 01:40:54;;;;;;;12.02;2.67;;;9.50;99.90;;;;;;4990540;28;20118;-80
2022/04/09 01:43:20;;;;;;;17.90;2.90;;;9.50;99.90;;;;;;4973928;28;20450;-80
2022/04/09 01:45:46;;;;;;;23.55;3.28;;;9.40;99.90;;;;;;4975213;28;20110;-81
2022/04/09 01:48:12;;;;;;;19.73;3.08;;;9.50;99.90;;;;;;4975308;28;20027;-80
2022/04/09 01:50:38;;;;;;;18.65;2.60;;;9.50;99.90;;;;;;4975301;28;20463;-80
2022/04/09 01:53:04;;;;;;;20.88;2.90;;;9.50;99.90;;;;;;4975222;28;20035;-80
2022/04/09 01:55:30;;;;;;;17.52;2.63;;;9.40;99.90;;;;;;4975133;28;20081;-81
2022/04/09 01:57:55;;;;;;;16.88;2.90;;;9.40;99.90;;;;;;4989893;28;20117;-80
2022/04/09 02:00:22;;;;;;;13.48;2.20;;;9.40;99.90;;;;;;4993535;28;20022;-81
2022/04/09 02:02:48;;;;;;;24.15;4.18;;;9.30;99.90;;;;;;4994683;28;20022;-80
2022/04/09 02:05:14;;;;;;;15.35;1.90;;;9.30;99.90;;;;;;4994321;28;20048;-81
2022/04/09 02:07:41;;;;;;;21.77;2.90;;;9.20;99.90;;;;;;4994498;28;20023;-80
2022/04/09 02:10:08;;;;;;;21.83;3.33;;;9.20;99.90;;;;;;4994203;28;20077;-80
2022/04/09 02:12:34;;;;;;;18.15;3.22;;;9.20;99.90;;;;;;4993987;28;20082;-80
2022/04/09 02:15:05;;;;;;;16.77;2.58;;;9.20;99.90;;;;;;4993955;28;20031;-80
2022/04/09 02:17:31;;;;;;;18.92;2.63;;;9.20;99.90;;;;;;4994310;28;20031;-80
2022/04/09 02:19:57;;;;;;;21.67;3.75;;;9.30;99.90;;;;;;4994093;28;20080;-80
2022/04/09 02:22:23;;;;;;;21.17;3.25;;;9.20;99.90;;;;;;4994230;28;20026;-80
2022/04/09 02:24:53;;;;;;;28.23;5.53;;;9.20;99.90;;;;;;5012296;28;20088;-80
2022/04/09 02:27:18;;;;;;;18.90;3.05;;;9.20;99.90;;;;;;5013338;28;20033;-80
2022/04/09 02:29:46;;;;;;;17.17;2.95;;;9.20;99.90;;;;;;4993977;28;20030;-80
2022/04/09 02:32:12;;;;;;;20.17;4.05;;;9.10;99.90;;;;;;4992771;28;20109;-80
2022/04/09 02:34:38;;;;;;;18.52;3.60;;;9.10;99.90;;;;;;4991211;28;20521;-81
2022/04/09 02:37:05;;;;;;;23.20;3.97;;;9.20;99.90;;;;;;5004536;28;20053;-80
2022/04/09 02:39:31;;;;;;;21.42;3.97;;;9.20;99.90;;;;;;5013006;28;20440;-80
2022/04/09 02:41:57;;;;;;;23.10;3.17;;;9.20;99.90;;;;;;5012207;28;20108;-79
2022/04/09 02:44:24;;;;;;;19.13;4.07;;;9.10;99.90;;;;;;4992833;28;20486;-80
2022/04/09 02:46:50;;;;;;;13.70;3.03;;;9.10;99.90;;;;;;4980864;28;20483;-79
2022/04/09 02:49:16;;;;;;;22.02;3.58;;;9.00;99.90;;;;;;4974078;28;20392;-80
2022/04/09 02:51:43;;;;;;;22.17;3.22;;;9.00;99.90;;;;;;4974505;28;20030;-79
2022/04/09 02:54:15;;;;;;;24.38;4.18;;;9.00;99.90;;;;;;4973971;28;20023;-80
2022/04/09 02:56:41;;;;;;;;;;;9.00;99.90;;;;;;4974782;28;20109;-80
2022/04/09 02:59:08;;;;;;;26.23;3.75;;;9.00;99.90;;;;;;4990273;28;19909;-80
2022/04/09 03:01:34;;;;;;;20.85;3.25;;;9.10;99.90;;;;;;5000202;28;20018;-79
2022/04/09 03:03:59;;;;;;;19.55;4.03;;;9.10;99.90;;;;;;4993616;28;20029;-80
2022/04/09 03:06:25;;;;;;;18.05;4.00;;;9.00;99.90;;;;;;4993404;28;20033;-78
2022/04/09 03:08:51;;;;;;;21.00;4.43;;;9.00;99.90;;;;;;4993156;28;20115;-80
2022/04/09 03:11:16;;;;;;;17.52;3.95;;;9.00;99.90;;;;;;4993633;28;20053;-80
2022/04/09 03:13:42;;;;;;;25.38;4.00;;;9.00;99.90;;;;;;4994021;28;20037;-79
2022/04/09 03:16:08;;;;;;;17.00;3.67;;;9.00;99.90;;;;;;4993394;28;20022;-80
2022/04/09 03:18:34;;;;;;;21.17;4.32;;;8.90;99.90;;;;;;4975856;28;20026;-80
2022/04/09 03:21:00;;;;;;;18.55;3.42;;;9.00;99.90;;;;;;4993485;28;20080;-80
2022/04/09 03:23:25;;;;;;;17.80;3.72;;;9.00;99.90;;;;;;5005988;28;20057;-80
2022/04/09 03:25:51;;;;;;;25.65;4.03;;;9.00;99.90;;;;;;4993080;28;20049;-80
2022/04/09 03:28:17;;;;;;;23.52;4.40;;;8.90;99.90;;;;;;4993283;28;20034;-80
2022/04/09 03:30:44;;;;;;;27.17;4.07;;;8.90;99.90;;;;;;4993246;28;20027;-80
2022/04/09 03:33:10;;;;;;;23.85;4.30;;;8.90;99.90;;;;;;4996203;28;20026;-80
2022/04/09 03:35:35;;;;;;;24.48;4.47;;;8.90;99.90;;;;;;4979865;28;20121;-80
2022/04/09 03:38:02;;;;;;;25.42;4.53;;;8.90;99.90;;;;;;5000755;28;20114;-80
2022/04/09 03:40:27;;;;;;;24.20;3.92;;;8.90;99.90;;;;;;5002078;28;20030;-80
2022/04/09 03:42:54;;;;;;;21.75;4.15;;;9.00;99.90;;;;;;4996873;28;20031;-80
2022/04/09 03:45:19;;;;;;;22.50;3.72;;;9.00;99.90;;;;;;4997126;28;20049;-80
2022/04/09 03:47:45;;;;;;;20.45;3.65;;;8.90;99.90;;;;;;4979407;28;20057;-80
2022/04/09 03:50:11;;;;;;;19.27;3.97;;;9.00;99.90;;;;;;4997049;28;20382;-80
2022/04/09 03:52:38;;;;;;;20.50;3.95;;;9.00;99.90;;;;;;4993438;28;20027;-80
2022/04/09 03:55:04;;;;;;;25.17;4.55;;;9.00;99.90;;;;;;5005797;28;20081;-80
2022/04/09 03:57:30;;;;;;;23.23;3.22;;;9.00;99.90;;;;;;4979578;28;20030;-80
2022/04/09 03:59:57;;;;;;;26.13;3.90;;;9.00;99.90;;;;;;4995524;28;20423;-80
2022/04/09 04:02:23;;;;;;;28.30;5.30;;;9.00;99.90;;;;;;4996607;28;20027;-80
2022/04/09 04:04:49;;;;;;;21.50;3.70;;;9.00;99.90;;;;;;4996658;28;20023;-80
2022/04/09 04:07:22;;;;;;;15.60;3.63;;;8.90;99.90;;;;;;4996407;28;20478;-80
2022/04/09 04:09:48;;;;;;;23.98;4.10;;;8.90;99.90;;;;;;4996635;28;20030;-80
2022/04/09 04:12:13;;;;;;;19.77;4.13;;;8.90;99.90;;;;;;5003708;28;20145;-80
2022/04/09 04:14:39;;;;;;;20.00;4.05;;;9.00;99.90;;;;;;5001300;28;20036;-80
2022/04/09 04:17:05;;;;;;;21.15;4.05;;;9.00;99.90;;;;;;5016141;28;20022;-80
2022/04/09 04:19:30;;;;;;;22.88;4.65;;;9.00;99.90;;;;;;5015965;28;20500;-80
2022/04/09 04:21:56;;;;;;;19.45;3.40;;;9.00;99.90;;;;;;5015420;28;20121;-81
2022/04/09 04:24:23;;;;;;;21.13;4.18;;;8.90;99.90;;;;;;4994887;28;20133;-80
2022/04/09 04:26:50;;;;;;;21.13;3.70;;;8.90;99.90;;;;;;4995665;28;20033;-80
2022/04/09 04:29:15;;;;;;;22.08;4.07;;;9.00;99.90;;;;;;4996392;28;20153;-80
2022/04/09 04:31:41;;;;;;;21.45;3.42;;;9.00;99.90;;;;;;4995077;28;20069;-80
2022/04/09 04:34:07;;;;;;;16.48;3.65;;;9.00;99.90;;;;;;4996216;28;20482;-80
2022/04/09 04:36:32;;;;;;;26.35;4.85;;;9.00;99.90;;;;;;4995831;28;20026;-80
2022/04/09 04:38:58;;;;;;;22.25;3.72;;;9.00;99.90;;;;;;4995851;28;20434;-80
2022/04/09 04:41:24;;;;;;;25.08;3.55;;;9.00;99.90;;;;;;4994843;28;20105;-80
2022/04/09 04:43:52;;;;;;;21.00;3.45;;;9.00;99.90;;;;;;4994602;28;20053;-78
2022/04/09 04:46:19;;;;;;;19.80;3.50;;;9.00;99.90;;;;;;4996070;28;20029;-80
2022/04/09 04:48:46;;;;;;;21.35;3.20;;;9.00;99.90;;;;;;4995830;28;20022;-80
2022/04/09 04:51:12;;;;;;;25.92;4.55;;;9.00;99.90;;;;;;4994213;28;20474;-80
2022/04/09 04:53:37;;;;;;;28.58;4.40;;;9.00;99.90;;;;;;4994715;28;20026;-80
2022/04/09 04:56:03;;;;;;;21.75;3.85;;;9.00;99.90;;;;;;4996288;28;20030;-80
2022/04/09 04:58:29;;;;;;;26.83;3.72;;;9.00;99.90;;;;;;4995874;28;20030;-80
2022/04/09 05:00:56;;;;;;;36.70;4.30;;;9.00;99.90;;;;;;4994330;28;20030;-80
2022/04/09 05:03:21;;;;;;;17.80;3.72;;;9.10;99.90;;;;;;4994911;28;20031;-80
2022/04/09 05:05:47;;;;;;;16.40;4.15;;;9.10;99.90;;;;;;4995352;28;20023;-80
2022/04/09 05:08:13;;;;;;;22.35;5.22;;;9.10;99.90;;;;;;4995569;28;20022;-80
2022/04/09 05:10:39;;;;;;;26.73;5.13;;;9.10;99.90;;;;;;4994231;28;20113;-80
2022/04/09 05:13:05;;;;;;;25.25;3.90;;;9.00;99.90;;;;;;4995587;28;20110;-80
2022/04/09 05:15:31;;;;;;;25.58;5.22;;;9.00;99.90;;;;;;4995237;28;20490;-81
2022/04/09 05:17:57;;;;;;;26.83;4.03;;;9.00;99.90;;;;;;4995026;28;20027;-80
2022/04/09 05:20:22;;;;;;;26.58;3.50;;;9.10;99.90;;;;;;4995201;28;20041;-80
2022/04/09 05:22:48;;;;;;;29.15;4.85;;;9.10;99.90;;;;;;4996959;28;20022;-80
2022/04/09 05:25:18;;;;;;;24.95;4.18;;;9.10;99.90;;;;;;5015239;28;20033;-80
2022/04/09 05:27:44;;;;;;;25.75;3.92;;;9.20;99.90;;;;;;5014643;28;20033;-80
2022/04/09 05:30:10;;;;;;;22.20;3.33;;;9.10;99.90;;;;;;5014943;28;20414;-80
2022/04/09 05:32:39;;;;;;;21.27;3.92;;;9.10;99.90;;;;;;5014193;28;20029;-80
2022/04/09 05:35:05;;;;;;;31.88;3.90;;;9.10;99.90;;;;;;4996864;28;20076;-80
2022/04/09 05:37:31;;;;;;;21.33;3.97;;;9.10;99.90;;;;;;5014571;28;20021;-80
2022/04/09 05:39:57;;;;;;;22.10;4.43;;;9.10;99.90;;;;;;5014478;28;20492;-80
2022/04/09 05:42:25;;;;;;;19.63;4.47;;;9.10;99.90;;;;;;5014366;28;20022;-80
2022/04/09 05:44:54;;;;;;;21.50;4.60;;;9.10;99.90;;;;;;5014429;28;20026;-80
2022/04/09 05:47:19;;;;;;;23.05;3.70;;;9.10;99.90;;;;;;4997485;28;20023;-80
2022/04/09 05:49:45;;;;;;;22.52;3.78;;;9.10;99.90;;;;;;4976875;28;20030;-80
2022/04/09 05:52:11;;;;;;;32.08;5.57;;;9.10;99.90;;;;;;4994475;28;20077;-80
2022/04/09 05:54:36;;;;;;;29.42;4.97;;;9.20;99.90;;;;;;4976537;28;20030;-80
2022/04/09 05:57:05;;;;;;;31.92;4.63;;;9.20;99.90;;;;;;4994515;28;20030;-80
2022/04/09 05:59:31;;;;;;;22.92;4.28;;;9.20;99.90;;;;;;4994817;28;20022;-80
2022/04/09 06:01:57;;;;;;;31.42;5.28;;;9.20;99.90;;;;;;4994532;28;20501;-80
2022/04/09 06:04:23;;;;;;;38.63;6.10;;;9.20;99.90;;;;;;4994209;28;20377;-81
2022/04/09 06:06:49;;;;;;;31.42;5.38;;;9.20;99.90;;;;;;4976860;28;20030;-80
2022/04/09 06:09:15;;;;;;;25.73;3.60;;;9.20;99.90;;;;;;4994278;28;20084;-81
2022/04/09 06:11:44;;;;;;;22.90;3.88;;;9.20;99.90;;;;;;4994432;28;20383;-80
2022/04/09 06:14:10;;;;;;;21.05;3.83;;;9.20;99.90;;;;;;4977272;28;20035;-80
2022/04/09 06:16:38;;;;;;;39.53;4.60;;;9.20;99.90;;;;;;4974591;28;20398;-80
2022/04/09 06:19:05;;;;;;;25.77;4.40;;;9.30;99.90;;;;;;4956929;28;20034;-80
2022/04/09 06:21:32;;;;;;;21.40;4.00;;;9.20;99.90;;;;;;4957283;28;20089;-80
2022/04/09 06:23:59;;;;;;;23.50;3.40;;;9.30;99.90;;;;;;4974404;28;20070;-80
2022/04/09 06:26:24;;;;;;;14.82;3.17;;;9.40;99.90;;;;;;4974724;28;20026;-80
2022/04/09 06:28:50;;;;;;;21.00;3.63;;;9.30;99.90;;;;;;4992636;28;20038;-80
2022/04/09 06:31:16;;;;;;;16.83;3.40;;;9.20;99.90;;;;;;4994332;28;20026;-80
2022/04/09 06:33:41;;;;;;;26.40;3.83;;;9.20;99.90;;;;;;4993659;28;20038;-80
2022/04/09 06:36:08;;;;;;;18.70;3.60;;;9.30;99.90;;;;;;4993141;28;20026;-80
2022/04/09 06:38:34;;;;;;;16.85;2.85;;;9.20;99.90;;;;;;5007647;28;20037;-80
2022/04/09 06:41:00;;;;;;;16.45;3.55;;;9.20;99.90;;;;;;4993453;28;20065;-80
2022/04/09 06:43:26;;;;;;;17.63;2.78;;;9.10;99.90;;;;;;4993885;28;20142;-79
2022/04/09 06:45:52;;;;;;;28.77;4.00;;;9.10;99.90;;;;;;4993572;28;20010;-80
2022/04/09 06:48:18;;;;;;;16.40;2.20;;;9.10;99.90;;;;;;4993541;28;20101;-81
2022/04/09 06:50:44;;;;;;;24.02;3.33;;;9.00;99.90;;;;;;4993772;28;20431;-79
2022/04/09 06:53:10;;;;;;;17.45;3.13;;;9.00;99.90;;;;;;4993594;28;20404;-79
2022/04/09 06:55:36;;;;;;;18.48;4.00;;;9.00;99.90;;;;;;4993746;28;20034;-80
2022/04/09 06:58:03;;;;;;;18.30;3.40;;;9.10;99.90;;;;;;4993709;28;20033;-79
2022/04/09 07:00:29;;;;;;;19.83;2.83;;;9.10;99.90;;;;;;4993107;28;20418;-80
2022/04/09 07:02:55;;;;;;;11.18;2.55;;;9.00;99.90;;;;;;5003552;28;20133;-78
2022/04/09 07:05:21;;;;;;;19.92;2.50;;;9.10;99.90;;;;;;4996812;28;20030;-79
2022/04/09 07:07:50;;;;;;;12.10;2.20;;;9.10;99.90;;;;;;4993148;28;20034;-78
2022/04/09 07:10:16;;;;;;;21.02;3.47;;;9.10;99.90;;;;;;4992001;28;20030;-78
2022/04/09 07:12:42;;;;;;;8.43;2.15;;;9.20;99.90;;;;;;4992122;28;20614;-78
2022/04/09 07:15:09;;;;;;;14.82;3.20;;;9.10;99.90;;;;;;4990739;28;20587;-79
2022/04/09 07:17:35;;;;;;;16.63;2.60;;;9.10;99.90;;;;;;4990368;28;20032;-79
2022/04/09 07:20:05;;;;;;;20.00;3.40;;;9.20;99.90;;;;;;4991875;28;20560;-83
2022/04/09 07:22:31;;;;;;;17.33;2.65;;;9.20;99.90;;;;;;4992196;28;20109;-80
2022/04/09 07:24:57;;;;;;;19.08;3.25;;;9.30;99.90;;;;;;4994620;28;20129;-80
2022/04/09 07:27:36;;;;;;;15.45;2.72;;;9.20;99.90;;;;;;4997003;28;20104;-80
2022/04/09 07:30:04;;;;;;;14.07;2.63;;;9.30;99.90;;;;;;5002958;28;20056;-79
2022/04/09 07:32:29;;;;;;;18.90;3.85;;;9.40;99.90;;;;;;5001928;28;20022;-79
2022/04/09 07:34:55;;;;;;;15.65;2.95;;;9.50;99.90;;;;;;5000523;28;20560;-80
2022/04/09 07:37:21;;;;;;;13.35;2.47;;;9.60;99.90;;;;;;5003842;28;20022;-79
2022/04/09 07:39:46;;;;;;;14.75;2.45;;;9.60;99.90;;;;;;5001308;28;20114;-80
2022/04/09 07:42:12;;;;;;;17.25;2.83;;;9.70;99.90;;;;;;5000503;28;20092;-79
2022/04/09 07:44:38;;;;;;;14.43;2.42;;;9.80;99.90;;;;;;5000158;28;20037;-79
2022/04/09 07:47:03;;;;;;;12.70;2.30;;;9.80;99.90;;;;;;5002568;28;20027;-80
2022/04/09 07:49:29;;;;;;;10.65;2.42;;;9.70;99.90;;;;;;5003653;28;20022;-80
2022/04/09 07:51:55;;;;;;;18.23;2.45;;;9.70;99.90;;;;;;5001951;28;20065;-79
2022/04/09 07:54:20;;;;;;;15.38;2.97;;;9.70;99.90;;;;;;5005898;28;20453;-79
2022/04/09 07:56:46;;;;;;;14.38;2.40;;;9.70;99.90;;;;;;5011049;28;20097;-79
2022/04/09 07:59:12;;;;;;;15.43;2.45;;;9.70;99.90;;;;;;5003832;28;20033;-80
2022/04/09 08:01:37;;;;;;;9.52;2.25;;;9.70;99.90;;;;;;4999194;28;20032;-80
2022/04/09 08:04:03;;;;;;;12.40;2.03;;;9.70;99.90;;;;;;4985691;28;20018;-80
2022/04/09 08:06:29;;;;;;;13.05;2.22;;;9.90;99.90;;;;;;4998858;28;20033;-80
2022/04/09 08:08:55;;;;;;;10.30;2.45;;;9.90;99.90;;;;;;4999014;28;20374;-79
2022/04/09 08:11:20;;;;;;;17.33;2.58;;;10.10;99.90;;;;;;4992617;28;20084;-80
2022/04/09 08:13:46;;;;;;;9.68;2.40;;;10.00;99.90;;;;;;4998660;28;20050;-79
2022/04/09 08:16:12;;;;;;;13.90;4.25;;;10.20;99.90;;;;;;5000777;28;20018;-80
2022/04/09 08:18:39;;;;;;;11.98;2.65;;;10.30;99.90;;;;;;5003519;28;20016;-80
2022/04/09 08:21:05;;;;;;;17.02;2.03;;;10.30;99.90;;;;;;4989095;28;20034;-80
2022/04/09 08:23:31;;;;;;;10.07;2.85;;;10.30;99.90;;;;;;5000367;28;20129;-79
2022/04/09 08:25:57;;;;;;;9.10;2.10;;;10.30;99.90;;;;;;4994566;28;20589;-79
2022/04/09 08:28:25;;;;;;;15.90;3.67;;;10.30;99.90;;;;;;4993847;28;20105;-80
2022/04/09 08:30:51;;;;;;;15.13;2.53;;;10.40;99.90;;;;;;4993523;28;20120;-80
2022/04/09 08:33:17;;;;;;;11.80;2.22;;;10.40;99.90;;;;;;4995281;28;20034;-79
2022/04/09 08:35:43;;;;;;;9.40;1.95;;;10.30;99.90;;;;;;4995879;28;20505;-79
2022/04/09 08:38:09;;;;;;;13.73;2.40;;;10.40;99.90;;;;;;4995305;28;20041;-80
2022/04/09 08:40:37;;;;;;;10.05;1.92;;;10.40;99.90;;;;;;5001403;28;20038;-79
2022/04/09 08:43:04;;;;;;;9.45;2.30;;;10.50;99.90;;;;;;4995095;28;20021;-80
2022/04/09 08:45:35;;;;;;;10.18;2.10;;;10.60;99.90;;;;;;4994168;28;20058;-79
2022/04/09 08:48:02;;;;;;;9.63;1.77;;;10.60;99.90;;;;;;4995139;28;20034;-80
2022/04/09 08:50:28;;;;;;;17.95;2.55;;;10.50;99.90;;;;;;4994377;28;20117;-79
2022/04/09 08:52:54;;;;;;;11.70;2.63;;;10.40;99.90;;;;;;4993622;28;20108;-79
2022/04/09 08:55:20;;;;;;;9.63;2.53;;;10.40;99.90;;;;;;4993156;28;20112;-79
2022/04/09 08:57:48;;;;;;;15.60;2.38;;;10.50;99.90;;;;;;4994307;28;20014;-79
2022/04/09 09:00:17;;;;;;;9.15;1.70;;;10.60;99.90;;;;;;4994145;28;20049;-79
2022/04/09 09:03:14;;;;;;;12.32;2.33;;;10.70;99.90;;;;;;4989661;28;20030;-79
2022/04/09 09:05:45;;;;;;;7.65;1.98;;;10.70;99.90;;;;;;4986157;28;20657;-79
2022/04/09 09:08:12;;;;;;;11.05;2.75;;;10.80;99.90;;;;;;4994115;28;20029;-79
2022/04/09 09:10:38;;;;;;;6.70;1.77;;;10.70;99.90;;;;;;4994126;28;20499;-80
2022/04/09 09:13:05;;;;;;;9.02;2.15;;;10.60;99.90;;;;;;4993098;28;20026;-79
2022/04/09 09:15:50;;;;;;;11.20;2.40;;;10.70;99.90;;;;;;4994452;28;20054;-80
2022/04/09 09:18:24;;;;;;;9.45;2.00;;;11.20;99.90;;;;;;4993645;28;20038;-79
2022/04/09 09:20:53;;;;;;;14.80;1.70;;;11.40;99.90;;;;;;4996814;28;20042;-79
2022/04/09 09:23:26;;;;;;;13.50;2.00;;;11.30;99.90;;;;;;4992750;28;20034;-85
2022/04/09 09:25:54;;;;;;;9.45;2.25;;;11.10;99.90;;;;;;4993397;28;20038;-84
2022/04/09 09:28:28;;;;;;;8.10;1.52;;;11.10;99.90;;;;;;4994167;28;20015;-78
2022/04/09 09:30:55;;;;;;;8.10;1.85;;;11.20;99.90;;;;;;4993258;28;20026;-82
2022/04/09 09:33:21;;;;;;;9.88;1.67;;;11.30;99.90;;;;;;4994039;28;20041;-77
2022/04/09 09:35:48;;;;;;;8.32;1.45;;;11.50;99.90;;;;;;4994330;28;20026;-80
2022/04/09 09:38:27;;;;;;;6.50;1.65;;;11.80;99.90;;;;;;4992741;28;20022;-82
2022/04/09 09:40:54;;;;;;;8.15;1.20;;;11.80;99.90;;;;;;4992424;28;20371;-80
2022/04/09 09:43:21;;;;;;;6.65;1.60;;;11.80;99.90;;;;;;4994235;28;20105;-80
2022/04/09 09:45:49;;;;;;;6.00;1.88;;;11.90;99.90;;;;;;4994139;28;20045;-76
2022/04/09 09:48:26;;;;;;;8.80;1.55;;;12.40;99.90;;;;;;4994397;28;20027;-80
2022/04/09 09:50:54;;;;;;;8.30;1.90;;;13.10;99.90;;;;;;4994443;28;20038;-80
2022/04/09 09:53:31;;;;;;;4.40;1.33;;;13.20;99.90;;;;;;4992163;28;20030;-80
2022/04/09 09:55:59;;;;;;;7.45;1.15;;;14.00;99.00;;;;;;4974765;28;20023;-81
2022/04/09 09:58:29;;;;;;;9.05;1.75;;;13.70;97.40;;;;;;4975425;28;20422;-80
2022/04/09 10:00:56;;;;;;;5.13;1.13;;;12.80;98.40;;;;;;4985023;28;20081;-80
2022/04/09 10:03:23;;;;;;;4.10;1.10;;;12.40;99.60;;;;;;4993402;28;20106;-79
2022/04/09 10:05:50;;;;;;;8.13;1.65;;;12.10;98.60;;;;;;4992616;28;20030;-73
2022/04/09 10:08:17;;;;;;;10.85;1.52;;;12.00;98.80;;;;;;4994208;28;20025;-80
2022/04/09 10:10:48;;;;;;;4.55;1.60;;;11.90;98.30;;;;;;4990492;28;20037;-79
2022/04/09 10:13:18;;;;;;;6.38;1.15;;;11.60;98.60;;;;;;4992051;28;20050;-80
2022/04/09 10:15:47;;;;;;;9.55;2.03;;;12.90;98.00;;;;;;4993343;28;20034;-81
2022/04/09 10:18:13;;;;;;;5.10;1.20;;;13.20;97.20;;;;;;4993872;28;20030;-79
2022/04/09 10:20:39;;;;;;;6.05;1.75;;;13.50;95.70;;;;;;4993788;28;20500;-79
2022/04/09 10:23:09;;;;;;;5.43;1.23;;;14.20;94.90;;;;;;4991918;28;20025;-80
2022/04/09 10:25:40;;;;;;;6.57;1.35;;;14.70;94.00;;;;;;4987655;28;20028;-80
2022/04/09 10:28:07;;;;;;;5.50;1.67;;;14.40;92.20;;;;;;4993174;28;20019;-81
2022/04/09 10:30:40;;;;;;;3.90;1.20;;;13.70;93.20;;;;;;4993455;28;20034;-80
2022/04/09 10:33:22;;;;;;;10.75;1.50;;;13.00;92.70;;;;;;4990738;28;20061;-79
2022/04/09 10:35:48;;;;;;;5.82;1.20;;;13.40;92.80;;;;;;4993524;28;20057;-79
2022/04/09 10:38:19;;;;;;;5.55;1.25;;;13.10;92.60;;;;;;4990826;28;20486;-82
2022/04/09 10:40:52;;;;;;;4.40;1.13;;;12.80;93.00;;;;;;4993155;28;20146;-80
2022/04/09 10:43:28;;;;;;;4.70;0.95;;;13.80;92.30;;;;;;4986452;28;20018;-79
2022/04/09 10:46:16;;;;;;;5.90;0.90;;;14.40;90.40;;;;;;4985326;28;20062;-79
2022/04/09 10:48:44;;;;;;;5.45;1.13;;;14.70;86.20;;;;;;4988154;28;20521;-78
2022/04/09 10:51:16;;;;;;;7.18;1.63;;;14.90;84.20;;;;;;4992278;28;20027;-80
2022/04/09 10:53:47;;;;;;;;;;;14.90;81.70;;;;;;4992334;28;20430;-80
2022/04/09 10:56:20;;;;;;;3.00;0.90;;;15.00;81.30;;;;;;4992174;28;19957;-80
2022/04/09 10:59:05;;;;;;;5.93;1.83;;;15.20;80.20;;;;;;4992249;28;20081;-79
2022/04/09 11:01:46;;;;;;;4.82;1.00;;;15.60;81.00;;;;;;4988132;28;20109;-81
2022/04/09 11:04:27;;;;;;;2.97;0.82;;;15.40;82.30;;;;;;4984681;28;20149;-80
2022/04/09 11:07:22;;;;;;;4.65;1.00;;;14.40;85.00;;;;;;4988988;28;20053;-81
2022/04/09 11:09:58;;;;;;;2.92;1.13;;;13.90;89.90;;;;;;4988854;28;20026;-81
2022/04/09 11:12:39;;;;;;;5.68;1.00;;;14.10;90.20;;;;;;4986508;28;20469;-76
2022/04/09 11:15:09;;;;;;;1.60;0.60;;;14.60;90.00;;;;;;4990431;28;20034;-79
2022/04/09 11:17:35;;;;;;;4.07;0.75;;;14.40;88.80;;;;;;4991651;28;20494;-80
2022/04/09 11:20:11;;;;;;;2.83;0.70;;;14.50;87.90;;;;;;4991918;28;20030;-80
2022/04/09 11:22:39;;;;;;;2.03;0.80;;;14.30;88.50;;;;;;4992147;28;20460;-83
2022/04/09 11:25:07;;;;;;;5.43;0.93;;;14.50;89.50;;;;;;4990922;28;20042;-79
2022/04/09 11:27:33;;;;;;;3.15;0.70;;;14.70;86.50;;;;;;4991039;28;20046;-80
2022/04/09 11:29:59;;;;;;;2.90;0.90;;;14.90;88.00;;;;;;4992489;28;20022;-80
2022/04/09 11:32:26;;;;;;;2.67;0.82;;;14.80;86.30;;;;;;4988950;28;20117;-80
2022/04/09 11:34:57;;;;;;;1.83;0.80;;;15.20;84.90;;;;;;4990384;28;20520;-80
2022/04/09 11:37:26;;;;;;;3.55;1.10;;;15.20;84.20;;;;;;4991176;28;20084;-80
2022/04/09 11:39:52;;;;;;;1.95;0.77;;;15.90;84.60;;;;;;4991710;28;20403;-79
2022/04/09 11:42:18;;;;;;;4.25;0.93;;;15.20;80.40;;;;;;4991393;28;20042;-79
2022/04/09 11:44:44;;;;;;;4.95;0.90;;;15.40;80.50;;;;;;4990066;28;20065;-78
2022/04/09 11:47:11;;;;;;;5.13;1.08;;;15.10;78.70;;;;;;4990890;28;20023;-79
2022/04/09 11:49:38;;;;;;;3.15;0.60;;;15.30;79.20;;;;;;4991736;28;20437;-77
2022/04/09 11:52:05;;;;;;;2.97;0.70;;;15.10;78.00;;;;;;4986688;28;20165;-79
2022/04/09 11:54:32;;;;;;;2.47;0.70;;;15.00;76.70;;;;;;4994799;28;20022;-80
2022/04/09 11:56:59;;;;;;;3.17;0.73;;;15.30;78.00;;;;;;4995767;28;20030;-80
2022/04/09 11:59:28;;;;;;;2.10;0.88;;;14.90;78.00;;;;;;4987243;28;20393;-80
2022/04/09 12:01:54;;;;;;;2.03;0.70;;;15.30;76.70;;;;;;4993249;28;20096;-79
2022/04/09 12:04:23;;;;;;;1.95;0.80;;;15.30;76.00;;;;;;4994392;28;20144;-79
2022/04/09 12:06:49;;;;;;;2.90;1.15;;;15.50;76.10;;;;;;4992255;28;20021;-80
2022/04/09 12:09:15;;;;;;;1.20;0.55;;;15.20;76.60;;;;;;4994708;28;20829;-80
2022/04/09 12:11:52;;;;;;;1.58;0.80;;;15.00;79.90;;;;;;4995351;28;20014;-79
2022/04/09 12:14:20;;;;;;;3.42;1.10;;;15.00;79.10;;;;;;4987830;28;20026;-78
2022/04/09 12:16:46;;;;;;;3.58;0.90;;;14.50;80.90;;;;;;4995125;28;20021;-80
2022/04/09 12:19:13;;;;;;;3.65;0.75;;;14.20;80.80;;;;;;4993004;28;20038;-80
2022/04/09 12:21:39;;;;;;;2.65;0.80;;;14.20;81.00;;;;;;4994716;28;20019;-80
2022/04/09 12:24:11;;;;;;;2.47;0.80;;;14.40;81.40;;;;;;4998016;28;20129;-80
2022/04/09 12:26:44;;;;;;;4.20;0.90;;;13.90;82.10;;;;;;4998015;28;20015;-80
2022/04/09 12:29:23;;;;;;;3.70;0.80;;;13.70;82.50;;;;;;4989217;28;20026;-80
2022/04/09 12:31:53;;;;;;;4.43;0.70;;;14.10;82.30;;;;;;5004594;28;20023;-80
2022/04/09 12:34:19;;;;;;;3.40;0.88;;;14.30;80.70;;;;;;5009353;28;20390;-79
2022/04/09 12:37:04;;;;;;;5.43;1.30;;;14.60;79.70;;;;;;5003298;28;20011;-80
2022/04/09 12:39:30;;;;;;;4.10;0.77;;;14.60;81.00;;;;;;4990965;28;20050;-80
2022/04/09 12:41:56;;;;;;;3.90;0.90;;;14.30;76.60;;;;;;4987212;28;20047;-80
2022/04/09 12:44:36;;;;;;;3.38;0.82;;;14.30;78.00;;;;;;5002847;28;20014;-81
2022/04/09 12:47:03;;;;;;;5.63;1.30;;;14.70;76.60;;;;;;4981603;28;20402;-81